Barbados Meteorological Services
Auto gathered TAF list
Powered by Apparatus software
For Flight AA2725
Contact Number 1-(246)-535-0021/2/3/4/5/6
WEB: http://www.barbadosweather.org

**********************************************

2018/10/19 06:09
TAF TLPL 190500Z 1906/2006 09016G26KT 9999 SCT023
TEMPO 1906/1921 5000 SHRA FEW014CB BKN016 BKN038 PROB30
TEMPO 1906/1915 TSRA FEW007


**********************************************
2018/10/19 06:42
TAF TJSJ 190539Z 1906/2006 08010KT P6SM VCSH FEW022 SCT040
FM191430 05016G22KT P6SM FEW025 SCT035
FM192200 08011KT P6SM VCSH SCT030


**********************************************
2018/10/19 06:02
TAF TFFR 190500Z 1906/2006 VRB03KT 9999 SCT030 PROB30
TEMPO 1918/1924 3000 SHRA SCT018TCU


**********************************************
2018/10/19 06:24
TAF TBPB 190500Z 1906/2006 05015KT 9000 RA SCT013 OVC032 PROB40
TEMPO 1906/1910 05017G30KT 5000 SHRA


**********************************************
2018/10/19 06:59
TAF TAPA 190500Z 1906/2006 07010KT 9999 SCT020 PROB30
TEMPO 1906/2006 SHRA


**********************************************
2018/10/19 06:20
TAF MYNN 190400Z 1906/2006 10009KT 9999 SCT025


**********************************************
2018/10/18 18:56
TAF MTPP 181700Z 1818/1918 07014KT 9000 FEW026CB PROB40
TEMPO 1900/1906 4500 TSRA SCT022CB BKN030
BECMG 1907/1911 VRB02KT 8000 NSW FEW016
BECMG 1912/1915 09010KT


**********************************************
2018/10/19 06:06
TAF MDSD 190400Z 1906/2006 03004KT 9999 SCT018
BECMG 1904/1906 00000KT PROB30 1912/1918 8000 -TSRA FEW016CB SCT016 SCT070


**********************************************
2018/10/19 06:57
TAF KSFB 190555Z 1906/2006 04003KT P6SM SCT030 BKN060
FM191400 07008KT P6SM SCT040
FM200200 10005KT P6SM SCT250


**********************************************
2018/10/19 06:32
TAF KPHL 190529Z 1906/2012 27006KT P6SM SKC
FM191500 23010KT P6SM SKC
FM200200 20006KT P6SM BKN200
FM200500 23009KT P6SM -SHRA OVC100


**********************************************
2018/10/19 06:31
TAF KPBI 190527Z 1906/2006 08007KT P6SM SCT030 SCT250
FM191600 09010KT P6SM SCT030 SCT250
FM200200 VRB05KT P6SM SCT040 SCT250


**********************************************
2018/10/19 06:30
TAF KOPF 190527Z 1906/2006 07005KT P6SM SCT030 SCT250
FM191600 10010KT P6SM SCT030 SCT250
FM200200 VRB05KT P6SM SCT040 SCT250


**********************************************


**********************************************
2018/10/19 06:30
TAF KMIA 190527Z 1906/2012 08008KT P6SM FEW035 SCT250
FM191600 10010KT P6SM SCT030 SCT250
FM200200 VRB05KT P6SM SCT040 SCT250


**********************************************
2018/10/19 06:57
TAF KMCO 190555Z 1906/2012 03003KT P6SM SKC
FM191400 08008KT P6SM SCT040
FM200200 09005KT P6SM SCT250


**********************************************
2018/10/19 09:40
TAF
AMD KJFK 190832Z 1909/2012 26009KT P6SM SKC
FM191500 24013G19KT P6SM SKC
FM191800 22014G22KT P6SM SCT250
FM200000 22015G20KT P6SM BKN250
FM200600 22015G25KT P6SM VCSH SCT040 BKN080 OVC120


**********************************************
2018/10/19 06:45
TAF KJAX 190542Z 1906/2006 05006KT P6SM SCT015 SCT250
FM191400 06010KT P6SM VCSH SCT015 BKN030 BKN050


**********************************************
2018/10/19 06:31
TAF KFLL 190527Z 1906/2012 08008KT P6SM SCT025
FM191600 10012KT P6SM SCT030 SCT250
FM200200 VRB05KT P6SM SCT040 SCT250


**********************************************
2018/10/19 09:34
TAF
AMD KEWR 190832Z 1909/2012 VRB05KT P6SM SKC
FM191300 24008KT P6SM SKC
FM191600 23011G18KT P6SM SKC
FM192000 23012G20KT P6SM SCT250
FM192300 22010G17KT P6SM BKN250
FM200500 22011G20KT P6SM VCSH SCT040 BKN080 OVC120


**********************************************
2018/10/19 08:12
TAF
AMD KCLT 190809Z 1908/2012 VRB03KT P6SM FEW250
FM191700 16004KT P6SM FEW050 FEW220
FM200200 20004KT P6SM SCT035 BKN110
FM200800 22006KT P6SM OVC060 PROB30 2011/2012 4SM -RA OVC025


**********************************************
2018/10/19 06:48
TAF KATL 190546Z 1906/2012 09007KT P6SM SCT250
FM191400 08006KT P6SM BKN035
FM191900 14006KT P6SM BKN040
FM200300 23004KT P6SM BKN040


**********************************************